createdAt,value
2022-11-04T00:00:04.489Z,99611.06
2022-11-04T00:00:36.676Z,99609.88
2022-11-04T00:01:09.213Z,99608.94
2022-11-04T00:01:43.862Z,99614.00
2022-11-04T00:02:15.803Z,99606.09
2022-11-04T00:02:47.697Z,99603.31
2022-11-04T00:03:19.714Z,99607.09
2022-11-04T00:03:52.982Z,99600.81
2022-11-04T00:04:27.404Z,99604.97
2022-11-04T00:04:59.281Z,99601.25
2022-11-04T00:05:31.139Z,99601.12
2022-11-04T00:06:03.005Z,99601.41
2022-11-04T00:06:35.440Z,99597.34
2022-11-04T00:07:27.236Z,99591.03
2022-11-04T00:08:17.536Z,99595.47
2022-11-04T00:08:51.115Z,99599.84
2022-11-04T00:09:28.490Z,99591.47
2022-11-04T00:10:00.358Z,99593.59
2022-11-04T00:10:51.034Z,99590.34
2022-11-04T00:11:41.949Z,99588.28
2022-11-04T00:12:26.569Z,99590.09
2022-11-04T00:12:58.409Z,99591.41
2022-11-04T00:13:30.290Z,99589.50
2022-11-04T00:14:02.370Z,99581.31
2022-11-04T00:14:34.946Z,99579.34
2022-11-04T00:15:25.643Z,99575.94
2022-11-04T00:16:20.206Z,99583.13
2022-11-04T00:17:10.517Z,99576.88
2022-11-04T00:17:42.669Z,99577.03
2022-11-04T00:18:14.489Z,99575.44
2022-11-04T00:18:46.571Z,99572.56
2022-11-04T00:19:18.606Z,99577.19
2022-11-04T00:20:11.167Z,99574.72
2022-11-04T00:21:01.656Z,99574.50
2022-11-04T00:21:51.995Z,99573.72
2022-11-04T00:22:42.377Z,99574.56
2022-11-04T00:23:33.353Z,99571.38
2022-11-04T00:24:24.759Z,99576.50
2022-11-04T00:25:15.072Z,99580.25
2022-11-04T00:26:05.458Z,99569.94
2022-11-04T00:26:56.517Z,99576.59
2022-11-04T00:27:47.383Z,99572.59
2022-11-04T00:28:38.898Z,99566.53
2022-11-04T00:29:10.745Z,99572.69
2022-11-04T00:29:42.584Z,99565.16
2022-11-04T00:30:14.454Z,99565.59
2022-11-04T00:30:46.314Z,99566.87
2022-11-04T00:31:38.407Z,99563.72
2022-11-04T00:32:29.157Z,99567.31
2022-11-04T00:33:19.646Z,99564.56
2022-11-04T00:33:54.007Z,99565.87
2022-11-04T00:34:25.842Z,99560.50
2022-11-04T00:34:57.673Z,99562.53
2022-11-04T00:35:29.534Z,99559.78
2022-11-04T00:36:01.332Z,99559.47
2022-11-04T00:36:33.165Z,99559.19
2022-11-04T00:37:05.041Z,99554.31
2022-11-04T00:37:38.704Z,99555.28
2022-11-04T00:38:10.888Z,99556.28
2022-11-04T00:38:43.241Z,99555.44
2022-11-04T00:39:15.343Z,99556.03
2022-11-04T00:39:47.185Z,99548.59
2022-11-04T00:40:19.151Z,99553.41
2022-11-04T00:40:51.000Z,99550.06
2022-11-04T00:41:30.389Z,99550.09
2022-11-04T00:42:02.438Z,99551.00
2022-11-04T00:42:34.492Z,99538.56
2022-11-04T00:43:06.323Z,99548.00
2022-11-04T00:43:38.141Z,99540.00
2022-11-04T00:44:10.053Z,99546.84
2022-11-04T00:44:42.193Z,99536.25
2022-11-04T00:45:14.550Z,99536.16
2022-11-04T00:45:46.409Z,99542.41
2022-11-04T00:46:18.254Z,99527.31
2022-11-04T00:46:50.115Z,99533.19
2022-11-04T00:47:21.957Z,99525.78
2022-11-04T00:47:53.801Z,99525.72
2022-11-04T00:48:25.777Z,99524.91
2022-11-04T00:48:58.328Z,99529.69
2022-11-04T00:49:30.192Z,99530.13
2022-11-04T00:50:02.452Z,99524.47
2022-11-04T00:50:34.301Z,99520.47
2022-11-04T00:51:06.795Z,99519.03
2022-11-04T00:51:38.855Z,99517.72
2022-11-04T00:52:10.728Z,99513.47
2022-11-04T00:52:42.662Z,99512.00
2022-11-04T00:53:14.486Z,99511.69
2022-11-04T00:53:46.371Z,99509.25
2022-11-04T00:54:18.184Z,99515.41
2022-11-04T00:54:50.093Z,99517.56
2022-11-04T00:55:22.199Z,99512.50
2022-11-04T00:55:59.809Z,99512.28
2022-11-04T00:56:31.803Z,99506.72
2022-11-04T00:57:03.734Z,99507.50
2022-11-04T00:57:35.669Z,99506.72
2022-11-04T00:58:07.499Z,99513.87
2022-11-04T00:58:39.383Z,99509.03
2022-11-04T00:59:14.383Z,99512.28
2022-11-04T00:59:46.623Z,99500.31
2022-11-04T01:00:20.043Z,99503.44
2022-11-04T01:00:52.233Z,99505.50
2022-11-04T01:01:24.182Z,99506.03
2022-11-04T01:01:56.449Z,99500.81
2022-11-04T01:02:28.430Z,99501.06
2022-11-04T01:03:01.000Z,99499.53
2022-11-04T01:03:32.875Z,99501.41
2022-11-04T01:04:04.872Z,99496.19
2022-11-04T01:04:36.830Z,99498.66
2022-11-04T01:05:09.359Z,99494.66
2022-11-04T01:05:41.239Z,99498.72
2022-11-04T01:06:13.354Z,99495.09
2022-11-04T01:06:45.152Z,99489.06
2022-11-04T01:07:17.079Z,99485.44
2022-11-04T01:07:48.938Z,99486.91
2022-11-04T01:08:20.765Z,99494.34
2022-11-04T01:09:01.309Z,99483.84
2022-11-04T01:09:33.192Z,99481.81
2022-11-04T01:10:06.582Z,99488.19
2022-11-04T01:10:44.641Z,99481.00
2022-11-04T01:11:17.015Z,99486.66
2022-11-04T01:11:48.911Z,99484.84
2022-11-04T01:12:20.767Z,99491.09
2022-11-04T01:12:53.421Z,99491.09
2022-11-04T01:13:25.303Z,99485.44
2022-11-04T01:13:58.282Z,99481.81
2022-11-04T01:14:30.644Z,99488.63
2022-11-04T01:15:02.523Z,99492.19
2022-11-04T01:15:34.331Z,99492.56
2022-11-04T01:16:08.801Z,99491.34
2022-11-04T01:16:41.235Z,99489.31
2022-11-04T01:17:13.089Z,99487.94
2022-11-04T01:17:44.939Z,99487.09
2022-11-04T01:18:16.755Z,99486.84
2022-11-04T01:18:48.625Z,99482.84
2022-11-04T01:19:20.768Z,99492.41
2022-11-04T01:19:53.013Z,99481.16
2022-11-04T01:20:24.911Z,99481.09
2022-11-04T01:21:04.830Z,99483.78
2022-11-04T01:21:37.073Z,99474.25
2022-11-04T01:22:09.188Z,99475.56
2022-11-04T01:22:41.006Z,99479.06
2022-11-04T01:23:12.820Z,99480.38
2022-11-04T01:23:45.580Z,99479.19
2022-11-04T01:24:17.418Z,99473.53
2022-11-04T01:24:49.251Z,99480.78
2022-11-04T01:25:21.221Z,99474.84
2022-11-04T01:25:53.094Z,99478.53
2022-11-04T01:26:26.719Z,99478.91
2022-11-04T01:26:58.554Z,99479.25
2022-11-04T01:27:30.775Z,99480.50
2022-11-04T01:28:02.645Z,99482.91
2022-11-04T01:28:35.077Z,99482.47
2022-11-04T01:29:06.937Z,99479.34
2022-11-04T01:29:39.069Z,99476.88
2022-11-04T01:30:11.571Z,99484.50
2022-11-04T01:30:43.510Z,99481.47
2022-11-04T01:31:21.542Z,99484.44
2022-11-04T01:31:53.492Z,99486.00
2022-11-04T01:32:25.381Z,99482.13
2022-11-04T01:32:57.610Z,99487.53
2022-11-04T01:33:29.446Z,99489.94
2022-11-04T01:34:01.329Z,99486.97
2022-11-04T01:34:33.139Z,99487.62
2022-11-04T01:35:05.341Z,99494.59
2022-11-04T01:35:37.203Z,99488.47
2022-11-04T01:36:10.739Z,99500.56
2022-11-04T01:36:42.570Z,99498.09
2022-11-04T01:37:14.450Z,99490.87
2022-11-04T01:37:46.338Z,99486.47
2022-11-04T01:38:18.534Z,99487.69
2022-11-04T01:38:50.476Z,99488.06
2022-11-04T01:39:22.408Z,99492.41
2022-11-04T01:39:54.227Z,99487.66
2022-11-04T01:40:26.267Z,99479.47
2022-11-04T01:40:58.939Z,99480.38
2022-11-04T01:41:33.317Z,99483.19
2022-11-04T01:42:05.165Z,99479.94
2022-11-04T01:42:36.977Z,99477.16
2022-11-04T01:43:17.347Z,99476.78
2022-11-04T01:43:51.427Z,99474.84
2022-11-04T01:44:41.381Z,99478.03
2022-11-04T01:45:16.183Z,99471.16
2022-11-04T01:45:57.031Z,99471.16
2022-11-04T01:46:46.007Z,99467.31
2022-11-04T01:47:22.195Z,99466.44
2022-11-04T01:48:05.137Z,99462.00
2022-11-04T01:48:37.497Z,99461.63
2022-11-04T01:49:26.222Z,99455.81
2022-11-04T01:50:11.466Z,99466.72
2022-11-04T01:50:44.026Z,99461.78
2022-11-04T01:51:16.156Z,99461.94
2022-11-04T01:51:51.086Z,99463.06
2022-11-04T01:52:30.152Z,99450.00
2022-11-04T01:53:10.730Z,99463.16
2022-11-04T01:53:43.855Z,99461.41
2022-11-04T01:54:16.728Z,99464.41
2022-11-04T01:54:50.755Z,99464.22
2022-11-04T01:55:46.717Z,99465.13
2022-11-04T01:56:20.430Z,99460.78
2022-11-04T01:56:53.906Z,99459.31
2022-11-04T01:57:34.144Z,99459.31
2022-11-04T01:58:14.007Z,99455.97
2022-11-04T01:58:51.176Z,99458.00
2022-11-04T01:59:30.489Z,99446.47
2022-11-04T02:00:06.225Z,99452.78
2022-11-04T02:00:44.117Z,99453.06
2022-11-04T02:01:16.512Z,99451.03
2022-11-04T02:01:48.546Z,99446.53
2022-11-04T02:02:20.574Z,99449.16
2022-11-04T02:03:10.293Z,99442.19
2022-11-04T02:03:52.074Z,99449.94
2022-11-04T02:04:26.916Z,99433.97
2022-11-04T02:04:58.759Z,99438.53
2022-11-04T02:05:31.482Z,99440.66
2022-11-04T02:06:04.472Z,99437.09
2022-11-04T02:06:36.669Z,99432.19
2022-11-04T02:07:10.933Z,99434.69
2022-11-04T02:07:43.103Z,99437.75
2022-11-04T02:08:18.113Z,99435.94
2022-11-04T02:08:50.194Z,99431.28
2022-11-04T02:09:24.112Z,99427.16
2022-11-04T02:09:56.382Z,99429.13
2022-11-04T02:10:30.604Z,99424.03
2022-11-04T02:11:04.446Z,99421.78
2022-11-04T02:11:55.299Z,99421.06
2022-11-04T02:12:45.618Z,99419.81
2022-11-04T02:13:17.613Z,99419.25
2022-11-04T02:13:49.454Z,99423.47
2022-11-04T02:14:21.293Z,99416.34
2022-11-04T02:14:54.191Z,99412.16
2022-11-04T02:15:50.300Z,99411.97
2022-11-04T02:16:48.371Z,99413.94
2022-11-04T02:17:20.412Z,99406.19
2022-11-04T02:18:04.220Z,99404.72
2022-11-04T02:19:00.017Z,99406.59
2022-11-04T02:20:06.806Z,99400.38
2022-11-04T02:21:00.084Z,99401.69
2022-11-04T02:22:08.389Z,99398.94
2022-11-04T02:23:25.364Z,99407.16
2022-11-04T02:24:23.842Z,99401.69
2022-11-04T02:25:04.325Z,99406.50
2022-11-04T02:25:57.840Z,99393.72
2022-11-04T02:26:41.431Z,99396.31
2022-11-04T02:27:16.047Z,99400.41
2022-11-04T02:28:06.198Z,99397.94
2022-11-04T02:29:15.353Z,99398.50
2022-11-04T02:30:24.133Z,99396.03
2022-11-04T02:31:01.561Z,99393.41
2022-11-04T02:31:51.296Z,99404.81
2022-11-04T02:32:36.987Z,99403.56
2022-11-04T02:33:22.272Z,99407.37
2022-11-04T02:34:00.661Z,99405.84
2022-11-04T02:34:38.158Z,99405.75
2022-11-04T02:35:30.494Z,99398.06
2022-11-04T02:36:22.964Z,99398.94
2022-11-04T02:37:13.088Z,99390.09
2022-11-04T02:37:50.837Z,99394.16
2022-11-04T02:38:43.994Z,99395.72
2022-11-04T02:39:44.367Z,99393.25
2022-11-04T02:40:41.366Z,99394.69
2022-11-04T02:41:25.557Z,99393.91
2022-11-04T02:42:09.177Z,99391.81
2022-11-04T02:43:01.355Z,99388.12
2022-11-04T02:43:56.737Z,99389.34
2022-11-04T02:44:35.739Z,99384.28
2022-11-04T02:45:19.850Z,99393.84
2022-11-04T02:46:01.934Z,99392.13
2022-11-04T02:46:45.454Z,99379.66
2022-11-04T02:47:24.156Z,99384.13
2022-11-04T02:48:12.299Z,99385.00
2022-11-04T02:48:49.242Z,99383.34
2022-11-04T02:49:29.790Z,99386.91
2022-11-04T02:50:16.409Z,99386.25
2022-11-04T02:51:06.206Z,99383.63
2022-11-04T02:51:56.129Z,99386.19
2022-11-04T02:52:30.761Z,99389.34
2022-11-04T02:53:18.666Z,99385.09
2022-11-04T02:54:27.909Z,99387.34
2022-11-04T02:55:20.054Z,99390.38
2022-11-04T02:55:56.450Z,99384.59
2022-11-04T02:56:29.784Z,99379.19
2022-11-04T02:57:05.649Z,99371.09
2022-11-04T02:57:42.144Z,99377.34
2022-11-04T02:58:38.403Z,99379.41
2022-11-04T02:59:37.187Z,99382.09
2022-11-04T03:00:12.371Z,99376.56
2022-11-04T03:00:46.300Z,99378.44
2022-11-04T03:01:21.241Z,99378.31
2022-11-04T03:01:55.005Z,99370.63
2022-11-04T03:02:33.455Z,99377.00
2022-11-04T03:03:12.251Z,99370.94
2022-11-04T03:03:49.147Z,99376.87
2022-11-04T03:04:34.389Z,99364.53
2022-11-04T03:05:09.322Z,99363.69
2022-11-04T03:05:47.560Z,99361.31
2022-11-04T03:06:23.121Z,99358.47
2022-11-04T03:06:57.949Z,99359.09
2022-11-04T03:07:34.372Z,99360.69
2022-11-04T03:08:14.696Z,99357.41
2022-11-04T03:08:51.200Z,99351.94
2022-11-04T03:09:24.018Z,99359.81
2022-11-04T03:10:01.868Z,99360.56
2022-11-04T03:10:36.166Z,99358.59
2022-11-04T03:11:27.715Z,99350.63
2022-11-04T03:12:05.528Z,99355.41
2022-11-04T03:12:42.544Z,99352.34
2022-11-04T03:13:16.253Z,99367.44
2022-11-04T03:13:50.557Z,99362.06
2022-11-04T03:14:35.582Z,99364.41
2022-11-04T03:15:14.441Z,99365.31
2022-11-04T03:15:55.933Z,99354.63
2022-11-04T03:16:40.723Z,99356.44
2022-11-04T03:17:31.223Z,99356.28
2022-11-04T03:18:18.256Z,99352.81
2022-11-04T03:18:53.132Z,99357.47
2022-11-04T03:19:54.707Z,99350.63
2022-11-04T03:20:28.691Z,99361.06
2022-11-04T03:21:03.487Z,99356.41
2022-11-04T03:21:40.204Z,99351.06
2022-11-04T03:22:17.417Z,99350.31
2022-11-04T03:22:49.555Z,99355.41
2022-11-04T03:23:21.651Z,99348.00
2022-11-04T03:23:54.267Z,99346.13
2022-11-04T03:24:27.100Z,99347.72
2022-11-04T03:25:00.546Z,99341.34
2022-11-04T03:25:39.164Z,99352.34
2022-11-04T03:26:40.300Z,99352.06
2022-11-04T03:27:34.985Z,99358.16
2022-11-04T03:28:20.841Z,99351.31
2022-11-04T03:29:01.383Z,99361.13
2022-11-04T03:30:08.266Z,99363.22
2022-11-04T03:30:44.286Z,99368.75
2022-11-04T03:31:24.576Z,99373.06
2022-11-04T03:32:17.771Z,99367.44
2022-11-04T03:33:09.307Z,99365.97
2022-11-04T03:33:48.767Z,99365.97
2022-11-04T03:34:20.654Z,99360.63
2022-11-04T03:34:52.723Z,99363.22
2022-11-04T03:35:25.902Z,99369.19
2022-11-04T03:35:58.501Z,99363.06
2022-11-04T03:36:30.366Z,99363.59
2022-11-04T03:37:02.291Z,99362.50
2022-11-04T03:37:34.824Z,99365.25
2022-11-04T03:38:06.695Z,99358.00
2022-11-04T03:38:38.934Z,99366.56
2022-11-04T03:39:10.798Z,99367.34
2022-11-04T03:39:42.749Z,99359.44
2022-11-04T03:40:16.081Z,99360.13
2022-11-04T03:40:48.011Z,99363.13
2022-11-04T03:41:31.950Z,99365.69
2022-11-04T03:42:20.344Z,99363.66
2022-11-04T03:43:00.552Z,99358.28
2022-11-04T03:43:34.583Z,99357.56
2022-11-04T03:44:06.534Z,99355.81
2022-11-04T03:44:38.456Z,99347.56
2022-11-04T03:45:10.996Z,99355.59
2022-11-04T03:45:44.001Z,99348.84
2022-11-04T03:46:15.865Z,99345.94
2022-11-04T03:46:48.384Z,99338.34
2022-11-04T03:47:24.460Z,99343.28
2022-11-04T03:47:56.982Z,99333.78
2022-11-04T03:48:29.518Z,99329.28
2022-11-04T03:49:02.967Z,99326.53
2022-11-04T03:49:34.880Z,99324.94
2022-11-04T03:50:16.558Z,99325.38
2022-11-04T03:50:49.508Z,99316.53
2022-11-04T03:51:21.407Z,99323.34
2022-11-04T03:51:53.585Z,99311.81
2022-11-04T03:52:25.556Z,99307.81
2022-11-04T03:52:58.740Z,99313.63
2022-11-04T03:53:31.832Z,99305.72
2022-11-04T03:54:04.743Z,99302.59
2022-11-04T03:54:36.690Z,99303.97
2022-11-04T03:55:09.703Z,99310.81
2022-11-04T03:56:06.952Z,99303.91
2022-11-04T03:56:49.125Z,99302.31
2022-11-04T03:57:56.516Z,99294.28
2022-11-04T03:58:53.814Z,99286.06
2022-11-04T03:59:40.878Z,99292.91
2022-11-04T04:00:15.927Z,99290.34
2022-11-04T04:00:58.872Z,99293.91
2022-11-04T04:01:47.104Z,99291.87
2022-11-04T04:02:37.338Z,99290.84
2022-11-04T04:03:18.348Z,99293.66
2022-11-04T04:04:02.628Z,99301.28
2022-11-04T04:04:40.080Z,99294.25
2022-11-04T04:05:18.693Z,99297.50
2022-11-04T04:05:59.445Z,99294.25
2022-11-04T04:06:35.889Z,99293.91
2022-11-04T04:07:16.424Z,99287.22
2022-11-04T04:08:14.620Z,99289.12
2022-11-04T04:08:53.798Z,99292.22
2022-11-04T04:09:37.842Z,99285.75
2022-11-04T04:10:33.457Z,99279.16
2022-11-04T04:11:19.574Z,99271.03
2022-11-04T04:12:14.013Z,99278.03
2022-11-04T04:12:48.257Z,99275.44
2022-11-04T04:13:47.794Z,99277.41
2022-11-04T04:14:41.369Z,99280.28
2022-11-04T04:15:27.292Z,99279.81
2022-11-04T04:16:13.585Z,99285.22
2022-11-04T04:16:47.864Z,99283.53
2022-11-04T04:17:32.752Z,99278.88
2022-11-04T04:18:11.209Z,99288.31
2022-11-04T04:18:55.673Z,99283.69
2022-11-04T04:19:31.996Z,99279.84
2022-11-04T04:20:06.268Z,99283.00
2022-11-04T04:20:40.553Z,99280.16
2022-11-04T04:21:29.362Z,99284.16
2022-11-04T04:22:17.152Z,99286.34
2022-11-04T04:23:02.130Z,99287.59
2022-11-04T04:23:54.993Z,99282.03
2022-11-04T04:24:50.935Z,99277.56
2022-11-04T04:25:45.484Z,99284.28
2022-11-04T04:26:38.292Z,99276.16
2022-11-04T04:27:30.981Z,99277.47
2022-11-04T04:28:04.596Z,99277.78
2022-11-04T04:28:37.639Z,99273.38
2022-11-04T04:29:10.924Z,99276.75
2022-11-04T04:29:45.071Z,99278.19
2022-11-04T04:30:17.518Z,99274.78
2022-11-04T04:30:49.918Z,99272.97
2022-11-04T04:31:42.025Z,99268.50
2022-11-04T04:32:14.556Z,99272.88
2022-11-04T04:32:51.642Z,99272.88
2022-11-04T04:33:23.469Z,99274.16
2022-11-04T04:33:55.331Z,99266.19
2022-11-04T04:34:29.854Z,99255.16
2022-11-04T04:35:20.230Z,99264.22
2022-11-04T04:35:56.515Z,99259.78
2022-11-04T04:36:29.920Z,99250.88
2022-11-04T04:37:25.432Z,99259.38
2022-11-04T04:38:21.610Z,99260.22
2022-11-04T04:39:12.324Z,99253.13
2022-11-04T04:40:13.059Z,99245.16
2022-11-04T04:41:09.610Z,99248.81
2022-11-04T04:42:00.041Z,99246.28
2022-11-04T04:42:54.532Z,99248.66
2022-11-04T04:43:45.395Z,99243.47
2022-11-04T04:44:44.326Z,99242.69
2022-11-04T04:45:23.294Z,99239.06
2022-11-04T04:45:56.818Z,99240.38
2022-11-04T04:46:29.821Z,99232.44
2022-11-04T04:47:02.887Z,99230.09
2022-11-04T04:47:46.886Z,99238.13
2022-11-04T04:48:19.578Z,99233.22
2022-11-04T04:48:51.747Z,99236.19
2022-11-04T04:49:23.573Z,99234.13
2022-11-04T04:49:58.030Z,99235.81
2022-11-04T04:50:37.325Z,99224.81
2022-11-04T04:51:09.181Z,99225.41
2022-11-04T04:51:47.209Z,99230.41
2022-11-04T04:52:20.250Z,99232.16
2022-11-04T04:52:54.939Z,99236.72
2022-11-04T04:53:26.800Z,99233.06
2022-11-04T04:53:58.956Z,99241.63
2022-11-04T04:54:31.014Z,99239.63
2022-11-04T04:55:02.950Z,99237.56
2022-11-04T04:55:40.521Z,99230.94
2022-11-04T04:56:13.763Z,99233.09
2022-11-04T04:56:47.253Z,99238.75
2022-11-04T04:57:19.108Z,99236.56
2022-11-04T04:57:50.973Z,99236.41
2022-11-04T04:58:22.802Z,99237.81
2022-11-04T04:58:54.634Z,99228.66
2022-11-04T04:59:26.771Z,99237.84
2022-11-04T04:59:58.673Z,99233.25
2022-11-04T05:00:30.844Z,99238.47
2022-11-04T05:01:04.485Z,99238.13
2022-11-04T05:01:36.470Z,99244.28
2022-11-04T05:02:08.953Z,99235.31
2022-11-04T05:02:41.008Z,99239.69
2022-11-04T05:03:12.895Z,99233.25
2022-11-04T05:03:45.373Z,99234.50
2022-11-04T05:04:17.370Z,99233.06
2022-11-04T05:04:49.524Z,99230.91
2022-11-04T05:05:21.384Z,99233.50
2022-11-04T05:05:54.954Z,99225.69
2022-11-04T05:06:29.672Z,99232.63
2022-11-04T05:07:01.613Z,99228.97
2022-11-04T05:07:33.455Z,99226.16
2022-11-04T05:08:08.908Z,99233.09
2022-11-04T05:08:40.941Z,99233.97
2022-11-04T05:09:12.780Z,99240.44
2022-11-04T05:09:44.806Z,99236.25
2022-11-04T05:10:18.160Z,99233.66
2022-11-04T05:10:49.991Z,99236.69
2022-11-04T05:11:26.150Z,99239.22
2022-11-04T05:11:59.007Z,99235.66
2022-11-04T05:12:50.882Z,99229.28
2022-11-04T05:13:25.982Z,99229.66
2022-11-04T05:13:57.867Z,99232.03
2022-11-04T05:14:30.471Z,99235.66
2022-11-04T05:15:02.378Z,99231.09
2022-11-04T05:15:34.884Z,99236.53
2022-11-04T05:16:11.510Z,99229.72
2022-11-04T05:16:43.348Z,99229.28
2022-11-04T05:17:15.745Z,99228.72
2022-11-04T05:17:47.683Z,99229.53
2022-11-04T05:18:19.905Z,99228.56
2022-11-04T05:18:52.629Z,99228.56
2022-11-04T05:19:24.697Z,99232.91
2022-11-04T05:19:56.520Z,99231.31
2022-11-04T05:20:29.163Z,99224.34
2022-11-04T05:21:08.909Z,99226.94
2022-11-04T05:21:40.750Z,99222.31
2022-11-04T05:22:12.676Z,99224.94
2022-11-04T05:22:44.516Z,99224.94
2022-11-04T05:23:16.452Z,99226.63
2022-11-04T05:23:48.299Z,99219.09
2022-11-04T05:24:20.146Z,99225.38
2022-11-04T05:24:52.047Z,99224.00
2022-11-04T05:25:23.966Z,99222.44
2022-11-04T05:25:58.908Z,99224.22
2022-11-04T05:26:31.033Z,99235.03
2022-11-04T05:27:02.889Z,99222.16
2022-11-04T05:27:34.815Z,99219.28
2022-11-04T05:28:07.531Z,99224.03
2022-11-04T05:28:39.760Z,99216.41
2022-11-04T05:29:12.501Z,99227.69
2022-11-04T05:29:44.346Z,99227.91
2022-11-04T05:30:16.231Z,99230.03
2022-11-04T05:30:48.029Z,99231.06
2022-11-04T05:31:19.877Z,99235.94
2022-11-04T05:31:51.982Z,99236.31
2022-11-04T05:32:23.857Z,99242.84
2022-11-04T05:32:59.837Z,99241.03
2022-11-04T05:33:35.342Z,99244.25
2022-11-04T05:34:07.259Z,99242.22
2022-11-04T05:34:39.106Z,99247.00
2022-11-04T05:35:11.010Z,99252.22
2022-11-04T05:35:42.882Z,99246.78
2022-11-04T05:36:16.623Z,99248.59
2022-11-04T05:36:48.457Z,99249.75
2022-11-04T05:37:20.560Z,99259.16
2022-11-04T05:37:52.498Z,99253.13
2022-11-04T05:38:24.370Z,99252.53
2022-11-04T05:38:56.255Z,99260.34
2022-11-04T05:39:28.105Z,99254.53
2022-11-04T05:39:59.941Z,99250.94
2022-11-04T05:40:31.778Z,99252.69
2022-11-04T05:41:04.284Z,99257.94
2022-11-04T05:41:36.139Z,99255.72
2022-11-04T05:42:08.116Z,99259.47
2022-11-04T05:42:40.327Z,99255.50
2022-11-04T05:43:12.373Z,99255.50
2022-11-04T05:43:44.217Z,99259.47
2022-11-04T05:44:16.069Z,99256.09
2022-11-04T05:44:47.892Z,99260.56
2022-11-04T05:45:19.791Z,99260.50
2022-11-04T05:45:51.621Z,99257.31
2022-11-04T05:46:24.080Z,99258.75
2022-11-04T05:46:55.922Z,99258.34
2022-11-04T05:47:27.815Z,99263.31
2022-11-04T05:48:05.152Z,99268.75
2022-11-04T05:48:40.571Z,99268.59
2022-11-04T05:49:12.715Z,99268.75
2022-11-04T05:49:44.529Z,99271.97
2022-11-04T05:50:16.351Z,99270.81
2022-11-04T05:50:48.179Z,99270.03
2022-11-04T05:51:22.802Z,99266.16
2022-11-04T05:51:54.626Z,99272.03
2022-11-04T05:52:26.547Z,99266.91
2022-11-04T05:52:59.418Z,99268.59
2022-11-04T05:53:31.552Z,99268.44
2022-11-04T05:54:03.585Z,99273.22
2022-11-04T05:54:39.263Z,99264.97
2022-11-04T05:55:11.199Z,99269.59
2022-11-04T05:55:43.250Z,99272.47
2022-11-04T05:56:15.381Z,99267.22
2022-11-04T05:56:47.721Z,99269.59
2022-11-04T05:57:19.895Z,99269.50
2022-11-04T05:57:52.127Z,99267.56
2022-11-04T05:58:23.937Z,99269.37
2022-11-04T05:58:56.211Z,99268.31
2022-11-04T05:59:28.066Z,99276.47
2022-11-04T05:59:59.901Z,99272.78
2022-11-04T06:00:32.009Z,99278.28
2022-11-04T06:01:45.976Z,99274.28
2022-11-04T06:02:18.057Z,99269.50
2022-11-04T06:02:50.130Z,99274.31
2022-11-04T06:03:22.154Z,99269.72
2022-11-04T06:03:54.648Z,99267.41
2022-11-04T06:04:26.510Z,99266.81
2022-11-04T06:04:58.462Z,99266.81
2022-11-04T06:05:30.514Z,99266.81
2022-11-04T06:06:02.326Z,99263.44
2022-11-04T06:06:36.567Z,99266.44
2022-11-04T06:07:09.473Z,99258.53
2022-11-04T06:07:41.335Z,99259.91
2022-11-04T06:08:13.146Z,99259.91
2022-11-04T06:08:46.438Z,99260.34
2022-11-04T06:09:18.433Z,99264.38
2022-11-04T06:09:50.270Z,99267.56
2022-11-04T06:10:22.583Z,99268.00
2022-11-04T06:10:54.424Z,99262.94
2022-11-04T06:11:28.234Z,99262.63
2022-11-04T06:12:00.368Z,99265.28
2022-11-04T06:12:32.391Z,99261.63
2022-11-04T06:13:04.229Z,99273.97
2022-11-04T06:13:36.111Z,99265.12
2022-11-04T06:14:07.953Z,99263.31
2022-11-04T06:14:39.749Z,99266.66
2022-11-04T06:15:12.076Z,99263.06
2022-11-04T06:15:43.909Z,99259.13
2022-11-04T06:16:15.760Z,99257.59
2022-11-04T06:16:47.814Z,99264.38
2022-11-04T06:17:21.708Z,99260.19
2022-11-04T06:17:53.592Z,99255.09
2022-11-04T06:18:25.507Z,99247.63
2022-11-04T06:19:01.490Z,99259.25
2022-11-04T06:19:37.779Z,99253.28
2022-11-04T06:20:10.428Z,99243.66
2022-11-04T06:20:42.244Z,99254.66
2022-11-04T06:21:13.996Z,99254.06
2022-11-04T06:21:45.919Z,99251.97
2022-11-04T06:22:19.268Z,99256.34
2022-11-04T06:22:51.454Z,99259.91
2022-11-04T06:23:23.310Z,99258.25
2022-11-04T06:23:59.708Z,99265.81
2022-11-04T06:24:31.539Z,99259.63
2022-11-04T06:25:03.610Z,99261.84
2022-11-04T06:25:35.550Z,99262.09
2022-11-04T06:26:07.634Z,99263.09
2022-11-04T06:26:39.670Z,99263.97
2022-11-04T06:27:12.296Z,99263.97
2022-11-04T06:27:44.109Z,99267.41
2022-11-04T06:28:16.218Z,99268.16
2022-11-04T06:28:48.297Z,99265.84
2022-11-04T06:29:20.142Z,99264.53
2022-11-04T06:29:53.605Z,99272.75
2022-11-04T06:30:25.427Z,99270.72
2022-11-04T06:31:02.748Z,99277.87
2022-11-04T06:31:34.550Z,99284.91
2022-11-04T06:32:11.224Z,99277.63
2022-11-04T06:32:43.131Z,99279.50
2022-11-04T06:33:15.000Z,99282.31
2022-11-04T06:33:47.261Z,99288.00
2022-11-04T06:34:19.117Z,99283.97
2022-11-04T06:34:51.035Z,99283.59
2022-11-04T06:35:22.975Z,99282.78
2022-11-04T06:36:02.217Z,99282.16
2022-11-04T06:36:34.111Z,99284.16
2022-11-04T06:37:06.303Z,99283.59
2022-11-04T06:37:38.212Z,99282.22
2022-11-04T06:38:10.390Z,99287.69
2022-11-04T06:38:42.961Z,99281.62
2022-11-04T06:39:15.092Z,99282.78
2022-11-04T06:39:46.934Z,99288.06
2022-11-04T06:40:18.757Z,99287.84
2022-11-04T06:40:50.812Z,99282.06
2022-11-04T06:41:22.687Z,99281.78
2022-11-04T06:41:56.567Z,99285.13
2022-11-04T06:42:31.440Z,99282.91
2022-11-04T06:43:03.325Z,99276.03
2022-11-04T06:43:35.331Z,99270.81
2022-11-04T06:44:07.570Z,99275.06
2022-11-04T06:44:39.696Z,99275.25
2022-11-04T06:45:12.003Z,99272.34
2022-11-04T06:45:43.904Z,99278.16
2022-11-04T06:46:48.112Z,99276.31
2022-11-04T06:47:24.605Z,99284.41
2022-11-04T06:47:56.889Z,99285.22
2022-11-04T06:48:30.717Z,99283.25
2022-11-04T06:49:03.397Z,99281.66
2022-11-04T06:49:35.292Z,99281.88
2022-11-04T06:50:07.741Z,99287.84
2022-11-04T06:50:39.569Z,99278.88
2022-11-04T06:51:11.395Z,99286.84
2022-11-04T06:51:43.463Z,99287.31
2022-11-04T06:52:15.281Z,99286.88
2022-11-04T06:52:47.151Z,99289.22
2022-11-04T06:53:19.035Z,99290.44
2022-11-04T06:53:50.957Z,99291.25
2022-11-04T06:54:22.874Z,99286.22
2022-11-04T06:54:54.732Z,99289.88
2022-11-04T06:55:26.845Z,99295.09
2022-11-04T06:56:03.997Z,99291.25
2022-11-04T06:56:36.249Z,99295.62
2022-11-04T06:57:11.712Z,99297.59
2022-11-04T06:57:43.564Z,99294.75
2022-11-04T06:58:15.390Z,99295.56
2022-11-04T06:58:54.718Z,99288.97
2022-11-04T06:59:26.533Z,99292.09
2022-11-04T06:59:58.407Z,99289.50
2022-11-04T07:00:30.799Z,99291.50
2022-11-04T07:01:07.198Z,99291.16
2022-11-04T07:01:43.537Z,99285.16
2022-11-04T07:02:15.587Z,99282.53
2022-11-04T07:02:47.683Z,99281.50
2022-11-04T07:03:19.685Z,99273.91
2022-11-04T07:03:53.399Z,99278.47
2022-11-04T07:04:25.216Z,99274.31
2022-11-04T07:05:33.351Z,99275.81
2022-11-04T07:06:09.681Z,99266.78
2022-11-04T07:06:45.023Z,99266.00
2022-11-04T07:07:16.982Z,99275.63
2022-11-04T07:07:48.848Z,99270.03
2022-11-04T07:08:20.768Z,99274.25
2022-11-04T07:08:53.455Z,99279.78
2022-11-04T07:09:25.425Z,99274.56
2022-11-04T07:09:57.258Z,99277.31
2022-11-04T07:10:29.126Z,99268.69
2022-11-04T07:11:01.509Z,99268.75
2022-11-04T07:11:33.832Z,99274.03